sensor_id;sensor_type;location;lat;lon;timestamp;P1;durP1;ratioP1;P2;durP2;ratioP2
70138;SDS011;57507;43.056;0.150;2023-04-06T00:01:46;1.50;;;0.85;;
70138;SDS011;57507;43.056;0.150;2023-04-06T00:04:17;1.35;;;0.82;;
70138;SDS011;57507;43.056;0.150;2023-04-06T00:06:49;1.10;;;0.77;;
70138;SDS011;57507;43.056;0.150;2023-04-06T00:09:19;1.40;;;1.00;;
70138;SDS011;57507;43.056;0.150;2023-04-06T00:11:45;1.15;;;0.90;;
70138;SDS011;57507;43.056;0.150;2023-04-06T00:14:11;1.10;;;1.00;;
70138;SDS011;57507;43.056;0.150;2023-04-06T00:16:37;1.10;;;1.00;;
70138;SDS011;57507;43.056;0.150;2023-04-06T00:19:03;1.20;;;1.10;;
70138;SDS011;57507;43.056;0.150;2023-04-06T00:21:29;1.13;;;1.00;;
70138;SDS011;57507;43.056;0.150;2023-04-06T00:23:56;1.75;;;1.20;;
70138;SDS011;57507;43.056;0.150;2023-04-06T00:26:22;0.70;;;0.70;;
70138;SDS011;57507;43.056;0.150;2023-04-06T00:28:48;1.33;;;0.95;;
70138;SDS011;57507;43.056;0.150;2023-04-06T00:31:16;1.33;;;0.90;;
70138;SDS011;57507;43.056;0.150;2023-04-06T00:33:42;1.35;;;0.80;;
70138;SDS011;57507;43.056;0.150;2023-04-06T00:36:08;1.42;;;0.90;;
70138;SDS011;57507;43.056;0.150;2023-04-06T00:38:35;0.82;;;0.80;;
70138;SDS011;57507;43.056;0.150;2023-04-06T00:41:01;1.77;;;1.08;;
70138;SDS011;57507;43.056;0.150;2023-04-06T00:43:28;2.97;;;1.02;;
70138;SDS011;57507;43.056;0.150;2023-04-06T00:45:54;1.73;;;0.90;;
70138;SDS011;57507;43.056;0.150;2023-04-06T00:48:20;0.93;;;0.80;;
70138;SDS011;57507;43.056;0.150;2023-04-06T00:50:46;1.92;;;1.10;;
70138;SDS011;57507;43.056;0.150;2023-04-06T00:53:12;2.20;;;1.20;;
70138;SDS011;57507;43.056;0.150;2023-04-06T00:55:38;3.53;;;1.10;;
70138;SDS011;57507;43.056;0.150;2023-04-06T00:58:05;1.05;;;0.88;;
70138;SDS011;57507;43.056;0.150;2023-04-06T01:00:31;1.48;;;1.23;;
70138;SDS011;57507;43.056;0.150;2023-04-06T01:02:57;1.98;;;1.00;;
70138;SDS011;57507;43.056;0.150;2023-04-06T01:05:24;1.25;;;1.00;;
70138;SDS011;57507;43.056;0.150;2023-04-06T01:07:50;1.55;;;0.90;;
70138;SDS011;57507;43.056;0.150;2023-04-06T01:10:25;0.85;;;0.85;;
70138;SDS011;57507;43.056;0.150;2023-04-06T01:12:51;1.60;;;0.93;;
70138;SDS011;57507;43.056;0.150;2023-04-06T01:15:17;1.30;;;0.80;;
70138;SDS011;57507;43.056;0.150;2023-04-06T01:17:44;3.10;;;1.10;;
70138;SDS011;57507;43.056;0.150;2023-04-06T01:20:10;1.10;;;1.00;;
70138;SDS011;57507;43.056;0.150;2023-04-06T01:22:36;3.47;;;1.45;;
70138;SDS011;57507;43.056;0.150;2023-04-06T01:25:02;1.75;;;0.90;;
70138;SDS011;57507;43.056;0.150;2023-04-06T01:27:28;1.20;;;0.95;;
70138;SDS011;57507;43.056;0.150;2023-04-06T01:29:55;1.80;;;0.90;;
70138;SDS011;57507;43.056;0.150;2023-04-06T01:32:21;1.27;;;1.00;;
70138;SDS011;57507;43.056;0.150;2023-04-06T01:34:47;0.75;;;0.75;;
70138;SDS011;57507;43.056;0.150;2023-04-06T01:37:13;4.07;;;1.23;;
70138;SDS011;57507;43.056;0.150;2023-04-06T01:39:39;1.48;;;0.90;;
70138;SDS011;57507;43.056;0.150;2023-04-06T01:42:05;1.92;;;0.90;;
70138;SDS011;57507;43.056;0.150;2023-04-06T01:44:31;0.75;;;0.75;;
70138;SDS011;57507;43.056;0.150;2023-04-06T01:46:57;1.45;;;1.10;;
70138;SDS011;57507;43.056;0.150;2023-04-06T01:49:23;1.60;;;0.70;;
70138;SDS011;57507;43.056;0.150;2023-04-06T01:51:50;3.03;;;1.10;;
70138;SDS011;57507;43.056;0.150;2023-04-06T01:54:16;1.58;;;1.00;;
70138;SDS011;57507;43.056;0.150;2023-04-06T01:56:42;2.22;;;0.90;;
70138;SDS011;57507;43.056;0.150;2023-04-06T01:59:09;4.00;;;1.08;;
70138;SDS011;57507;43.056;0.150;2023-04-06T02:01:35;1.58;;;0.80;;
70138;SDS011;57507;43.056;0.150;2023-04-06T02:04:01;1.00;;;0.90;;
70138;SDS011;57507;43.056;0.150;2023-04-06T02:06:27;1.33;;;0.90;;
70138;SDS011;57507;43.056;0.150;2023-04-06T02:08:53;1.45;;;1.00;;
70138;SDS011;57507;43.056;0.150;2023-04-06T02:11:19;1.70;;;1.15;;
70138;SDS011;57507;43.056;0.150;2023-04-06T02:13:45;2.75;;;0.98;;
70138;SDS011;57507;43.056;0.150;2023-04-06T02:16:11;3.00;;;1.20;;
70138;SDS011;57507;43.056;0.150;2023-04-06T02:18:37;2.15;;;1.02;;
70138;SDS011;57507;43.056;0.150;2023-04-06T02:21:03;1.33;;;1.00;;
70138;SDS011;57507;43.056;0.150;2023-04-06T02:23:29;1.60;;;1.05;;
70138;SDS011;57507;43.056;0.150;2023-04-06T02:25:55;1.20;;;0.80;;
70138;SDS011;57507;43.056;0.150;2023-04-06T02:28:21;1.20;;;1.10;;
70138;SDS011;57507;43.056;0.150;2023-04-06T02:30:47;1.15;;;0.80;;
70138;SDS011;57507;43.056;0.150;2023-04-06T02:33:13;1.13;;;0.80;;
70138;SDS011;57507;43.056;0.150;2023-04-06T02:35:39;1.15;;;0.68;;
70138;SDS011;57507;43.056;0.150;2023-04-06T02:38:07;0.90;;;0.80;;
70138;SDS011;57507;43.056;0.150;2023-04-06T02:40:33;1.40;;;1.00;;
70138;SDS011;57507;43.056;0.150;2023-04-06T02:42:59;1.50;;;1.20;;
70138;SDS011;57507;43.056;0.150;2023-04-06T02:45:25;1.95;;;0.80;;
70138;SDS011;57507;43.056;0.150;2023-04-06T02:47:51;1.45;;;0.90;;
70138;SDS011;57507;43.056;0.150;2023-04-06T02:50:17;0.98;;;0.80;;
70138;SDS011;57507;43.056;0.150;2023-04-06T02:52:43;0.85;;;0.85;;
70138;SDS011;57507;43.056;0.150;2023-04-06T02:55:09;1.50;;;0.70;;
70138;SDS011;57507;43.056;0.150;2023-04-06T02:57:35;0.90;;;0.90;;
70138;SDS011;57507;43.056;0.150;2023-04-06T03:00:01;0.57;;;0.57;;
70138;SDS011;57507;43.056;0.150;2023-04-06T03:02:27;1.02;;;0.88;;
70138;SDS011;57507;43.056;0.150;2023-04-06T03:04:54;1.05;;;0.88;;
70138;SDS011;57507;43.056;0.150;2023-04-06T03:07:20;1.58;;;0.77;;
70138;SDS011;57507;43.056;0.150;2023-04-06T03:09:46;1.38;;;0.80;;
70138;SDS011;57507;43.056;0.150;2023-04-06T03:12:12;0.65;;;0.65;;
70138;SDS011;57507;43.056;0.150;2023-04-06T03:14:38;1.10;;;0.90;;
70138;SDS011;57507;43.056;0.150;2023-04-06T03:17:04;0.93;;;0.90;;
70138;SDS011;57507;43.056;0.150;2023-04-06T03:19:30;1.25;;;0.70;;
70138;SDS011;57507;43.056;0.150;2023-04-06T03:21:56;1.00;;;0.90;;
70138;SDS011;57507;43.056;0.150;2023-04-06T03:24:22;0.60;;;0.60;;
70138;SDS011;57507;43.056;0.150;2023-04-06T03:26:49;1.40;;;0.93;;
70138;SDS011;57507;43.056;0.150;2023-04-06T03:29:15;1.80;;;0.90;;
70138;SDS011;57507;43.056;0.150;2023-04-06T03:31:41;1.60;;;1.05;;
70138;SDS011;57507;43.056;0.150;2023-04-06T03:34:07;2.65;;;1.38;;
70138;SDS011;57507;43.056;0.150;2023-04-06T03:36:34;1.38;;;0.88;;
70138;SDS011;57507;43.056;0.150;2023-04-06T03:39:00;0.70;;;0.63;;
70138;SDS011;57507;43.056;0.150;2023-04-06T03:41:26;0.73;;;0.73;;
70138;SDS011;57507;43.056;0.150;2023-04-06T03:43:52;2.65;;;0.80;;
70138;SDS011;57507;43.056;0.150;2023-04-06T03:46:18;1.05;;;0.95;;
70138;SDS011;57507;43.056;0.150;2023-04-06T03:48:45;0.60;;;0.60;;
70138;SDS011;57507;43.056;0.150;2023-04-06T03:51:11;1.67;;;0.90;;
70138;SDS011;57507;43.056;0.150;2023-04-06T03:53:37;0.60;;;0.60;;
70138;SDS011;57507;43.056;0.150;2023-04-06T03:56:03;1.10;;;1.00;;
70138;SDS011;57507;43.056;0.150;2023-04-06T03:58:29;1.13;;;1.02;;
70138;SDS011;57507;43.056;0.150;2023-04-06T04:00:56;0.45;;;0.45;;
70138;SDS011;57507;43.056;0.150;2023-04-06T04:03:22;1.85;;;0.70;;
70138;SDS011;57507;43.056;0.150;2023-04-06T04:05:52;1.05;;;0.80;;
70138;SDS011;57507;43.056;0.150;2023-04-06T04:08:20;1.20;;;0.70;;
70138;SDS011;57507;43.056;0.150;2023-04-06T04:10:46;0.82;;;0.50;;
70138;SDS011;57507;43.056;0.150;2023-04-06T04:13:12;1.38;;;0.70;;
70138;SDS011;57507;43.056;0.150;2023-04-06T04:15:38;1.42;;;0.82;;
70138;SDS011;57507;43.056;0.150;2023-04-06T04:18:04;1.33;;;0.82;;
70138;SDS011;57507;43.056;0.150;2023-04-06T04:20:30;1.23;;;0.90;;
70138;SDS011;57507;43.056;0.150;2023-04-06T04:22:56;1.10;;;1.00;;
70138;SDS011;57507;43.056;0.150;2023-04-06T04:25:23;1.05;;;0.68;;
70138;SDS011;57507;43.056;0.150;2023-04-06T04:27:49;1.10;;;0.90;;
70138;SDS011;57507;43.056;0.150;2023-04-06T04:30:15;1.83;;;0.70;;
70138;SDS011;57507;43.056;0.150;2023-04-06T04:32:41;1.40;;;0.98;;
70138;SDS011;57507;43.056;0.150;2023-04-06T04:35:07;0.95;;;0.70;;
70138;SDS011;57507;43.056;0.150;2023-04-06T04:37:34;1.25;;;0.93;;
70138;SDS011;57507;43.056;0.150;2023-04-06T04:40:00;2.25;;;0.80;;
70138;SDS011;57507;43.056;0.150;2023-04-06T04:42:26;1.30;;;0.80;;
70138;SDS011;57507;43.056;0.150;2023-04-06T04:44:52;2.35;;;0.80;;
70138;SDS011;57507;43.056;0.150;2023-04-06T04:47:18;0.80;;;0.68;;
70138;SDS011;57507;43.056;0.150;2023-04-06T04:49:44;1.02;;;0.90;;
70138;SDS011;57507;43.056;0.150;2023-04-06T04:52:10;1.90;;;0.80;;
70138;SDS011;57507;43.056;0.150;2023-04-06T04:54:36;1.35;;;0.80;;
70138;SDS011;57507;43.056;0.150;2023-04-06T04:57:02;2.10;;;0.85;;
70138;SDS011;57507;43.056;0.150;2023-04-06T04:59:28;1.27;;;0.80;;
70138;SDS011;57507;43.056;0.150;2023-04-06T05:01:54;0.80;;;0.60;;
70138;SDS011;57507;43.056;0.150;2023-04-06T05:04:21;1.63;;;0.80;;
70138;SDS011;57507;43.056;0.150;2023-04-06T05:06:48;1.17;;;0.93;;
70138;SDS011;57507;43.056;0.150;2023-04-06T05:09:14;1.25;;;0.80;;
70138;SDS011;57507;43.056;0.150;2023-04-06T05:11:42;1.55;;;0.70;;
70138;SDS011;57507;43.056;0.150;2023-04-06T05:14:08;0.65;;;0.60;;
70138;SDS011;57507;43.056;0.150;2023-04-06T05:16:34;1.40;;;0.60;;
70138;SDS011;57507;43.056;0.150;2023-04-06T05:19:01;1.13;;;0.77;;
70138;SDS011;57507;43.056;0.150;2023-04-06T05:21:27;1.17;;;0.90;;
70138;SDS011;57507;43.056;0.150;2023-04-06T05:23:53;1.38;;;1.00;;
70138;SDS011;57507;43.056;0.150;2023-04-06T05:26:19;1.33;;;0.70;;
70138;SDS011;57507;43.056;0.150;2023-04-06T05:28:45;0.70;;;0.60;;
70138;SDS011;57507;43.056;0.150;2023-04-06T05:31:11;1.85;;;0.82;;
70138;SDS011;57507;43.056;0.150;2023-04-06T05:33:37;1.00;;;0.75;;
70138;SDS011;57507;43.056;0.150;2023-04-06T05:36:03;0.80;;;0.80;;
70138;SDS011;57507;43.056;0.150;2023-04-06T05:38:31;0.95;;;0.73;;
70138;SDS011;57507;43.056;0.150;2023-04-06T05:40:58;1.08;;;0.75;;
70138;SDS011;57507;43.056;0.150;2023-04-06T05:43:24;1.10;;;1.00;;
70138;SDS011;57507;43.056;0.150;2023-04-06T05:45:50;1.50;;;0.90;;
70138;SDS011;57507;43.056;0.150;2023-04-06T05:48:16;1.10;;;0.80;;
70138;SDS011;57507;43.056;0.150;2023-04-06T05:50:42;0.82;;;0.68;;
70138;SDS011;57507;43.056;0.150;2023-04-06T05:53:08;0.77;;;0.63;;
70138;SDS011;57507;43.056;0.150;2023-04-06T05:55:34;0.68;;;0.68;;
70138;SDS011;57507;43.056;0.150;2023-04-06T05:58:00;0.75;;;0.75;;
70138;SDS011;57507;43.056;0.150;2023-04-06T06:00:26;1.92;;;1.08;;
70138;SDS011;57507;43.056;0.150;2023-04-06T06:02:52;0.73;;;0.70;;
70138;SDS011;57507;43.056;0.150;2023-04-06T06:05:19;2.00;;;0.80;;
70138;SDS011;57507;43.056;0.150;2023-04-06T06:07:45;1.58;;;0.93;;
70138;SDS011;57507;43.056;0.150;2023-04-06T06:10:11;0.60;;;0.60;;
70138;SDS011;57507;43.056;0.150;2023-04-06T06:12:37;1.20;;;0.90;;
70138;SDS011;57507;43.056;0.150;2023-04-06T06:15:03;1.02;;;0.70;;
70138;SDS011;57507;43.056;0.150;2023-04-06T06:17:30;1.38;;;0.73;;
70138;SDS011;57507;43.056;0.150;2023-04-06T06:19:56;2.80;;;0.80;;
70138;SDS011;57507;43.056;0.150;2023-04-06T06:22:22;1.20;;;0.80;;
70138;SDS011;57507;43.056;0.150;2023-04-06T06:24:48;1.25;;;0.93;;
70138;SDS011;57507;43.056;0.150;2023-04-06T06:27:15;0.90;;;0.73;;
70138;SDS011;57507;43.056;0.150;2023-04-06T06:29:41;4.13;;;1.90;;
70138;SDS011;57507;43.056;0.150;2023-04-06T06:32:07;3.45;;;1.92;;
70138;SDS011;57507;43.056;0.150;2023-04-06T06:34:34;18.25;;;6.72;;
70138;SDS011;57507;43.056;0.150;2023-04-06T06:37:00;17.60;;;6.32;;
70138;SDS011;57507;43.056;0.150;2023-04-06T06:39:27;8.20;;;3.50;;
70138;SDS011;57507;43.056;0.150;2023-04-06T06:41:54;2.28;;;1.23;;
70138;SDS011;57507;43.056;0.150;2023-04-06T06:44:20;2.45;;;1.13;;
70138;SDS011;57507;43.056;0.150;2023-04-06T06:46:46;1.95;;;0.90;;
70138;SDS011;57507;43.056;0.150;2023-04-06T06:49:12;1.20;;;1.10;;
70138;SDS011;57507;43.056;0.150;2023-04-06T06:51:39;1.25;;;0.90;;
70138;SDS011;57507;43.056;0.150;2023-04-06T06:54:05;1.88;;;0.80;;
70138;SDS011;57507;43.056;0.150;2023-04-06T06:56:31;1.27;;;1.02;;
70138;SDS011;57507;43.056;0.150;2023-04-06T06:58:57;1.27;;;0.90;;
70138;SDS011;57507;43.056;0.150;2023-04-06T07:01:24;1.70;;;0.88;;
70138;SDS011;57507;43.056;0.150;2023-04-06T07:03:50;1.33;;;0.75;;
70138;SDS011;57507;43.056;0.150;2023-04-06T07:06:16;0.77;;;0.77;;
70138;SDS011;57507;43.056;0.150;2023-04-06T07:08:42;2.65;;;0.77;;
70138;SDS011;57507;43.056;0.150;2023-04-06T07:11:08;1.60;;;0.88;;
70138;SDS011;57507;43.056;0.150;2023-04-06T07:13:34;1.17;;;0.98;;
70138;SDS011;57507;43.056;0.150;2023-04-06T07:16:00;1.00;;;0.88;;
70138;SDS011;57507;43.056;0.150;2023-04-06T07:18:26;1.80;;;0.85;;
70138;SDS011;57507;43.056;0.150;2023-04-06T07:20:52;1.02;;;0.90;;
70138;SDS011;57507;43.056;0.150;2023-04-06T07:23:19;1.05;;;0.70;;
70138;SDS011;57507;43.056;0.150;2023-04-06T07:25:47;0.70;;;0.70;;
70138;SDS011;57507;43.056;0.150;2023-04-06T07:28:16;1.20;;;0.77;;
70138;SDS011;57507;43.056;0.150;2023-04-06T07:30:45;0.82;;;0.63;;
70138;SDS011;57507;43.056;0.150;2023-04-06T07:35:54;0.82;;;0.80;;
70138;SDS011;57507;43.056;0.150;2023-04-06T07:38:29;4.28;;;1.38;;
70138;SDS011;57507;43.056;0.150;2023-04-06T07:40:58;0.98;;;0.90;;
70138;SDS011;57507;43.056;0.150;2023-04-06T07:46:10;2.17;;;1.05;;
70138;SDS011;57507;43.056;0.150;2023-04-06T07:51:32;1.48;;;0.88;;
70138;SDS011;57507;43.056;0.150;2023-04-06T07:57:12;1.00;;;0.88;;
70138;SDS011;57507;43.056;0.150;2023-04-06T07:59:38;0.95;;;0.75;;
70138;SDS011;57507;43.056;0.150;2023-04-06T08:02:07;0.70;;;0.70;;
70138;SDS011;57507;43.056;0.150;2023-04-06T08:11:04;2.55;;;0.90;;
70138;SDS011;57507;43.056;0.150;2023-04-06T08:16:28;2.30;;;1.23;;
70138;SDS011;57507;43.056;0.150;2023-04-06T08:18:54;1.63;;;1.05;;
70138;SDS011;57507;43.056;0.150;2023-04-06T08:21:20;2.20;;;1.40;;
70138;SDS011;57507;43.056;0.150;2023-04-06T08:23:47;1.58;;;1.02;;
70138;SDS011;57507;43.056;0.150;2023-04-06T08:26:13;3.05;;;1.33;;
70138;SDS011;57507;43.056;0.150;2023-04-06T08:28:39;1.48;;;1.00;;
70138;SDS011;57507;43.056;0.150;2023-04-06T08:31:05;2.00;;;1.08;;
70138;SDS011;57507;43.056;0.150;2023-04-06T08:33:32;1.85;;;1.30;;
70138;SDS011;57507;43.056;0.150;2023-04-06T08:36:10;3.03;;;1.08;;
70138;SDS011;57507;43.056;0.150;2023-04-06T08:38:37;1.08;;;0.90;;
70138;SDS011;57507;43.056;0.150;2023-04-06T08:41:10;2.60;;;0.88;;
70138;SDS011;57507;43.056;0.150;2023-04-06T08:43:41;1.13;;;0.73;;
70138;SDS011;57507;43.056;0.150;2023-04-06T08:46:09;0.77;;;0.70;;
70138;SDS011;57507;43.056;0.150;2023-04-06T08:48:36;1.00;;;0.90;;
70138;SDS011;57507;43.056;0.150;2023-04-06T08:51:02;1.40;;;0.90;;
70138;SDS011;57507;43.056;0.150;2023-04-06T08:53:28;3.15;;;0.90;;
70138;SDS011;57507;43.056;0.150;2023-04-06T08:55:58;1.52;;;0.98;;
70138;SDS011;57507;43.056;0.150;2023-04-06T08:58:25;2.28;;;0.70;;
70138;SDS011;57507;43.056;0.150;2023-04-06T09:01:13;1.60;;;0.98;;
70138;SDS011;57507;43.056;0.150;2023-04-06T09:03:40;1.13;;;0.77;;
70138;SDS011;57507;43.056;0.150;2023-04-06T09:06:08;1.60;;;0.80;;
70138;SDS011;57507;43.056;0.150;2023-04-06T09:08:35;1.40;;;0.70;;
70138;SDS011;57507;43.056;0.150;2023-04-06T09:11:02;1.25;;;0.70;;
70138;SDS011;57507;43.056;0.150;2023-04-06T09:13:29;3.65;;;0.80;;
70138;SDS011;57507;43.056;0.150;2023-04-06T09:16:04;1.38;;;0.85;;
70138;SDS011;57507;43.056;0.150;2023-04-06T09:18:34;0.80;;;0.80;;
70138;SDS011;57507;43.056;0.150;2023-04-06T09:21:01;1.70;;;0.73;;
70138;SDS011;57507;43.056;0.150;2023-04-06T09:23:27;1.70;;;0.90;;
70138;SDS011;57507;43.056;0.150;2023-04-06T09:26:07;1.17;;;0.75;;
70138;SDS011;57507;43.056;0.150;2023-04-06T09:31:25;1.45;;;0.55;;
70138;SDS011;57507;43.056;0.150;2023-04-06T09:33:52;1.35;;;0.60;;
70138;SDS011;57507;43.056;0.150;2023-04-06T09:36:18;1.13;;;0.68;;
70138;SDS011;57507;43.056;0.150;2023-04-06T09:38:54;0.98;;;0.70;;
70138;SDS011;57507;43.056;0.150;2023-04-06T09:41:28;1.63;;;0.60;;
70138;SDS011;57507;43.056;0.150;2023-04-06T09:46:36;1.20;;;0.70;;
70138;SDS011;57507;43.056;0.150;2023-04-06T09:49:04;3.30;;;0.80;;
70138;SDS011;57507;43.056;0.150;2023-04-06T09:51:37;1.50;;;0.60;;
70138;SDS011;57507;43.056;0.150;2023-04-06T09:54:03;1.08;;;0.98;;
70138;SDS011;57507;43.056;0.150;2023-04-06T09:56:31;1.00;;;0.63;;
70138;SDS011;57507;43.056;0.150;2023-04-06T09:59:02;0.57;;;0.57;;
70138;SDS011;57507;43.056;0.150;2023-04-06T10:01:32;2.70;;;0.63;;
70138;SDS011;57507;43.056;0.150;2023-04-06T10:06:46;3.13;;;0.63;;
70138;SDS011;57507;43.056;0.150;2023-04-06T10:09:17;1.27;;;0.70;;
70138;SDS011;57507;43.056;0.150;2023-04-06T10:11:43;1.63;;;0.57;;
70138;SDS011;57507;43.056;0.150;2023-04-06T10:14:10;1.15;;;0.60;;
70138;SDS011;57507;43.056;0.150;2023-04-06T10:16:36;1.17;;;0.60;;
70138;SDS011;57507;43.056;0.150;2023-04-06T10:19:06;0.77;;;0.57;;
70138;SDS011;57507;43.056;0.150;2023-04-06T10:21:35;1.48;;;0.55;;
70138;SDS011;57507;43.056;0.150;2023-04-06T10:24:06;1.85;;;0.50;;
70138;SDS011;57507;43.056;0.150;2023-04-06T10:26:34;1.13;;;0.50;;
70138;SDS011;57507;43.056;0.150;2023-04-06T10:29:04;0.98;;;0.40;;
70138;SDS011;57507;43.056;0.150;2023-04-06T10:31:30;1.30;;;0.50;;
70138;SDS011;57507;43.056;0.150;2023-04-06T10:33:57;1.48;;;0.43;;
70138;SDS011;57507;43.056;0.150;2023-04-06T10:36:33;1.58;;;0.88;;
70138;SDS011;57507;43.056;0.150;2023-04-06T10:39:00;0.85;;;0.50;;
70138;SDS011;57507;43.056;0.150;2023-04-06T10:41:40;1.88;;;0.45;;
70138;SDS011;57507;43.056;0.150;2023-04-06T10:44:06;1.02;;;0.50;;
70138;SDS011;57507;43.056;0.150;2023-04-06T10:46:33;0.70;;;0.70;;
70138;SDS011;57507;43.056;0.150;2023-04-06T10:49:11;1.90;;;0.65;;
70138;SDS011;57507;43.056;0.150;2023-04-06T10:51:37;1.08;;;0.60;;
70138;SDS011;57507;43.056;0.150;2023-04-06T10:54:04;0.52;;;0.50;;
70138;SDS011;57507;43.056;0.150;2023-04-06T10:56:31;1.52;;;0.60;;
70138;SDS011;57507;43.056;0.150;2023-04-06T10:59:00;0.38;;;0.38;;
70138;SDS011;57507;43.056;0.150;2023-04-06T11:01:26;2.97;;;0.50;;
70138;SDS011;57507;43.056;0.150;2023-04-06T11:03:53;0.65;;;0.60;;
70138;SDS011;57507;43.056;0.150;2023-04-06T11:08:46;1.17;;;0.70;;
70138;SDS011;57507;43.056;0.150;2023-04-06T11:11:13;0.63;;;0.43;;
70138;SDS011;57507;43.056;0.150;2023-04-06T11:13:42;2.08;;;0.70;;
70138;SDS011;57507;43.056;0.150;2023-04-06T11:19:13;0.77;;;0.60;;
70138;SDS011;57507;43.056;0.150;2023-04-06T11:21:33;1.33;;;0.50;;
70138;SDS011;57507;43.056;0.150;2023-04-06T11:24:04;4.10;;;0.65;;
70138;SDS011;57507;43.056;0.150;2023-04-06T11:26:30;0.60;;;0.40;;
70138;SDS011;57507;43.056;0.150;2023-04-06T11:28:56;0.95;;;0.57;;
70138;SDS011;57507;43.056;0.150;2023-04-06T11:31:25;0.70;;;0.70;;
70138;SDS011;57507;43.056;0.150;2023-04-06T11:33:55;1.60;;;0.73;;
70138;SDS011;57507;43.056;0.150;2023-04-06T11:36:22;1.02;;;0.65;;
70138;SDS011;57507;43.056;0.150;2023-04-06T11:38:48;0.93;;;0.70;;
70138;SDS011;57507;43.056;0.150;2023-04-06T11:41:14;1.67;;;0.70;;
70138;SDS011;57507;43.056;0.150;2023-04-06T11:43:45;1.10;;;0.80;;
70138;SDS011;57507;43.056;0.150;2023-04-06T11:46:11;1.45;;;0.50;;
70138;SDS011;57507;43.056;0.150;2023-04-06T11:48:45;1.10;;;0.70;;
70138;SDS011;57507;43.056;0.150;2023-04-06T11:51:12;0.57;;;0.52;;
70138;SDS011;57507;43.056;0.150;2023-04-06T11:53:44;1.33;;;0.70;;
70138;SDS011;57507;43.056;0.150;2023-04-06T11:56:11;0.70;;;0.50;;
70138;SDS011;57507;43.056;0.150;2023-04-06T11:58:37;0.60;;;0.52;;
70138;SDS011;57507;43.056;0.150;2023-04-06T12:01:03;1.02;;;0.50;;
70138;SDS011;57507;43.056;0.150;2023-04-06T12:03:30;1.52;;;0.65;;
70138;SDS011;57507;43.056;0.150;2023-04-06T12:05:56;0.77;;;0.52;;
70138;SDS011;57507;43.056;0.150;2023-04-06T12:08:22;0.43;;;0.43;;
70138;SDS011;57507;43.056;0.150;2023-04-06T12:10:50;1.98;;;0.55;;
70138;SDS011;57507;43.056;0.150;2023-04-06T12:13:16;1.25;;;0.85;;
70138;SDS011;57507;43.056;0.150;2023-04-06T12:15:42;1.23;;;0.70;;
70138;SDS011;57507;43.056;0.150;2023-04-06T12:18:08;1.73;;;0.80;;
70138;SDS011;57507;43.056;0.150;2023-04-06T12:20:34;1.98;;;0.98;;
70138;SDS011;57507;43.056;0.150;2023-04-06T12:23:00;0.82;;;0.60;;
70138;SDS011;57507;43.056;0.150;2023-04-06T12:25:26;1.17;;;0.63;;
70138;SDS011;57507;43.056;0.150;2023-04-06T12:27:52;1.92;;;0.75;;
70138;SDS011;57507;43.056;0.150;2023-04-06T12:30:19;0.60;;;0.60;;
70138;SDS011;57507;43.056;0.150;2023-04-06T12:32:45;2.80;;;0.60;;
70138;SDS011;57507;43.056;0.150;2023-04-06T12:35:11;1.58;;;0.60;;
70138;SDS011;57507;43.056;0.150;2023-04-06T12:37:40;1.23;;;0.68;;
70138;SDS011;57507;43.056;0.150;2023-04-06T12:40:07;0.90;;;0.60;;
70138;SDS011;57507;43.056;0.150;2023-04-06T12:42:35;1.50;;;0.70;;
70138;SDS011;57507;43.056;0.150;2023-04-06T12:45:01;0.73;;;0.65;;
70138;SDS011;57507;43.056;0.150;2023-04-06T12:47:27;1.08;;;0.80;;
70138;SDS011;57507;43.056;0.150;2023-04-06T12:49:53;1.65;;;0.82;;
70138;SDS011;57507;43.056;0.150;2023-04-06T12:52:20;1.92;;;1.00;;
70138;SDS011;57507;43.056;0.150;2023-04-06T12:54:47;1.33;;;0.93;;
70138;SDS011;57507;43.056;0.150;2023-04-06T12:57:13;1.27;;;0.77;;
70138;SDS011;57507;43.056;0.150;2023-04-06T12:59:42;3.40;;;0.80;;
70138;SDS011;57507;43.056;0.150;2023-04-06T13:02:09;0.75;;;0.70;;
70138;SDS011;57507;43.056;0.150;2023-04-06T13:04:35;2.42;;;0.75;;
70138;SDS011;57507;43.056;0.150;2023-04-06T13:07:01;0.90;;;0.70;;
70138;SDS011;57507;43.056;0.150;2023-04-06T13:09:27;1.55;;;0.70;;
70138;SDS011;57507;43.056;0.150;2023-04-06T13:11:53;1.08;;;0.80;;
70138;SDS011;57507;43.056;0.150;2023-04-06T13:14:20;1.15;;;0.70;;
70138;SDS011;57507;43.056;0.150;2023-04-06T13:16:46;1.23;;;0.63;;
70138;SDS011;57507;43.056;0.150;2023-04-06T13:19:12;0.95;;;0.70;;
70138;SDS011;57507;43.056;0.150;2023-04-06T13:21:39;1.48;;;0.82;;
70138;SDS011;57507;43.056;0.150;2023-04-06T13:24:05;3.28;;;0.65;;
70138;SDS011;57507;43.056;0.150;2023-04-06T13:26:31;1.35;;;0.70;;
70138;SDS011;57507;43.056;0.150;2023-04-06T13:28:58;1.10;;;0.80;;
70138;SDS011;57507;43.056;0.150;2023-04-06T13:31:26;1.42;;;1.02;;
70138;SDS011;57507;43.056;0.150;2023-04-06T13:33:52;1.00;;;0.65;;
70138;SDS011;57507;43.056;0.150;2023-04-06T13:36:18;2.15;;;0.75;;
70138;SDS011;57507;43.056;0.150;2023-04-06T13:38:44;0.65;;;0.60;;
70138;SDS011;57507;43.056;0.150;2023-04-06T13:41:17;0.88;;;0.63;;
70138;SDS011;57507;43.056;0.150;2023-04-06T13:43:43;1.13;;;0.90;;
70138;SDS011;57507;43.056;0.150;2023-04-06T13:46:09;1.58;;;0.73;;
70138;SDS011;57507;43.056;0.150;2023-04-06T13:48:35;1.20;;;0.75;;
70138;SDS011;57507;43.056;0.150;2023-04-06T13:51:07;1.83;;;1.17;;
70138;SDS011;57507;43.056;0.150;2023-04-06T13:53:34;2.13;;;1.17;;
70138;SDS011;57507;43.056;0.150;2023-04-06T13:56:00;5.05;;;1.38;;
70138;SDS011;57507;43.056;0.150;2023-04-06T13:58:26;3.10;;;1.20;;
70138;SDS011;57507;43.056;0.150;2023-04-06T14:00:51;1.58;;;1.17;;
70138;SDS011;57507;43.056;0.150;2023-04-06T14:03:18;1.75;;;1.35;;
70138;SDS011;57507;43.056;0.150;2023-04-06T14:05:44;1.75;;;1.00;;
70138;SDS011;57507;43.056;0.150;2023-04-06T14:08:10;1.90;;;0.98;;
70138;SDS011;57507;43.056;0.150;2023-04-06T14:10:39;1.83;;;0.80;;
70138;SDS011;57507;43.056;0.150;2023-04-06T14:13:07;2.10;;;1.08;;
70138;SDS011;57507;43.056;0.150;2023-04-06T14:15:33;2.42;;;1.38;;
70138;SDS011;57507;43.056;0.150;2023-04-06T14:17:59;5.57;;;1.40;;
70138;SDS011;57507;43.056;0.150;2023-04-06T14:20:25;1.90;;;1.10;;
70138;SDS011;57507;43.056;0.150;2023-04-06T14:22:51;1.63;;;1.10;;
70138;SDS011;57507;43.056;0.150;2023-04-06T14:25:19;1.67;;;1.10;;
70138;SDS011;57507;43.056;0.150;2023-04-06T14:27:45;1.67;;;1.23;;
70138;SDS011;57507;43.056;0.150;2023-04-06T14:30:11;2.45;;;1.65;;
70138;SDS011;57507;43.056;0.150;2023-04-06T14:32:37;2.30;;;1.40;;
70138;SDS011;57507;43.056;0.150;2023-04-06T14:35:04;2.22;;;1.67;;
70138;SDS011;57507;43.056;0.150;2023-04-06T14:37:30;2.47;;;1.52;;
70138;SDS011;57507;43.056;0.150;2023-04-06T14:39:56;2.53;;;1.67;;
70138;SDS011;57507;43.056;0.150;2023-04-06T14:42:22;2.83;;;1.90;;
70138;SDS011;57507;43.056;0.150;2023-04-06T14:44:48;1.75;;;1.48;;
70138;SDS011;57507;43.056;0.150;2023-04-06T14:47:14;1.98;;;1.48;;
70138;SDS011;57507;43.056;0.150;2023-04-06T14:49:45;3.05;;;1.50;;
70138;SDS011;57507;43.056;0.150;2023-04-06T14:52:11;1.83;;;1.20;;
70138;SDS011;57507;43.056;0.150;2023-04-06T14:54:37;1.50;;;1.20;;
70138;SDS011;57507;43.056;0.150;2023-04-06T14:57:03;2.38;;;1.10;;
70138;SDS011;57507;43.056;0.150;2023-04-06T14:59:29;1.40;;;1.10;;
70138;SDS011;57507;43.056;0.150;2023-04-06T15:01:57;2.70;;;1.70;;
70138;SDS011;57507;43.056;0.150;2023-04-06T15:04:25;2.15;;;1.50;;
70138;SDS011;57507;43.056;0.150;2023-04-06T15:06:51;7.82;;;2.00;;
70138;SDS011;57507;43.056;0.150;2023-04-06T15:09:17;1.63;;;1.17;;
70138;SDS011;57507;43.056;0.150;2023-04-06T15:11:43;2.08;;;1.23;;
70138;SDS011;57507;43.056;0.150;2023-04-06T15:14:09;2.13;;;1.30;;
70138;SDS011;57507;43.056;0.150;2023-04-06T15:16:35;2.33;;;1.45;;
70138;SDS011;57507;43.056;0.150;2023-04-06T15:19:01;4.63;;;1.42;;
70138;SDS011;57507;43.056;0.150;2023-04-06T15:21:27;2.50;;;1.33;;